Tracer — PHAC — position and weather

sailwx.info

Track history (hours):
 
Tides and Currents Weather Stations Pressure Air Temp Water Temp Dewpoint Dewpoint Depression Visibility Wind Speed Wind Dir Waves Ship Positions

Tracer

Last reported at 2017-Jan-19 13:12 UTC. Time now 2017-Jan-20 05:44 UTC.
Position N 10°45' W 061°43'.

Length 101 m; beam 20 m.

Type: Cargo ship. MMSI: 245949000.

Date/timePositionNaut miles runAvg speedWind from/ knotsBaromVisibWave heightAir tempDewpointWater temp
2017-Jan-19 13:12N 10°45' W 061°43'6 9.8
2017-Jan-19 12:33N 10°39' W 061°45'7 6.8
2017-Jan-19 11:31N 10°41' W 061°38'0 0.0
2017-Jan-19 10:31N 10°41' W 061°38'0 0.0
2017-Jan-19 09:31N 10°41' W 061°38'0 0.0
2017-Jan-19 08:31N 10°41' W 061°38'0 0.0
2017-Jan-19 07:31N 10°41' W 061°38'0 0.0
2017-Jan-19 06:31N 10°41' W 061°38'0 0.0
2017-Jan-19 05:31N 10°41' W 061°38'0 0.0
2017-Jan-19 04:31N 10°41' W 061°38'0 0.0
2017-Jan-19 03:31N 10°41' W 061°38'0 0.0
2017-Jan-19 02:31N 10°41' W 061°38'0 0.0
2017-Jan-19 01:31N 10°41' W 061°38'0 0.0
2017-Jan-19 00:31N 10°41' W 061°38'0 0.0
2017-Jan-18 23:28N 10°41' W 061°38'0 0.0
2017-Jan-18 22:31N 10°41' W 061°38'0 0.0
2017-Jan-18 21:31N 10°41' W 061°38'0 0.0
2017-Jan-18 20:31N 10°41' W 061°38'0 0.0
2017-Jan-18 19:31N 10°41' W 061°38'0 0.0
2017-Jan-18 18:28N 10°41' W 061°38'0 0.0
2017-Jan-18 17:28N 10°41' W 061°38'0 0.0
2017-Jan-18 16:28N 10°41' W 061°38'0 0.0
2017-Jan-18 15:28N 10°41' W 061°38'0 0.0
2017-Jan-18 14:31N 10°41' W 061°38'0 0.0
2017-Jan-18 13:25N 10°41' W 061°38'0 0.0
2017-Jan-18 12:28N 10°41' W 061°38'0 0.0
2017-Jan-18 11:31N 10°41' W 061°38'0 0.0
2017-Jan-18 10:31N 10°41' W 061°38'0 0.0
2017-Jan-18 09:31N 10°41' W 061°38'0 0.0
2017-Jan-18 08:31N 10°41' W 061°38'0 0.0
2017-Jan-18 07:34N 10°41' W 061°38'0 0.0
2017-Jan-18 06:33N 10°41' W 061°38'0 0.0
2017-Jan-18 05:33N 10°41' W 061°38'0 0.0
2017-Jan-18 04:33N 10°41' W 061°38'0 0.0
2017-Jan-18 03:33N 10°41' W 061°38'0 0.0
2017-Jan-18 02:33N 10°41' W 061°38'0 0.0
2017-Jan-18 01:33N 10°41' W 061°38'0 0.0
2017-Jan-18 00:33N 10°41' W 061°38'0 0.0
2017-Jan-17 23:33N 10°41' W 061°38'0 0.0
2017-Jan-17 22:33N 10°41' W 061°38'0 0.0
2017-Jan-17 21:30N 10°41' W 061°38'0 0.0
2017-Jan-17 20:33N 10°41' W 061°38'0 0.0
2017-Jan-17 19:33N 10°41' W 061°38'0 0.0
2017-Jan-17 18:33N 10°41' W 061°38'0 0.0
2017-Jan-17 17:30N 10°41' W 061°38'0 0.0
2017-Jan-17 16:33N 10°41' W 061°38'0 0.0
2017-Jan-17 15:33N 10°41' W 061°38'0 0.0
2017-Jan-17 14:33N 10°41' W 061°38'1 0.8
2017-Jan-17 13:33N 10°40' W 061°39'2 2.1
2017-Jan-17 12:32N 10°38' W 061°40'0 0.1
2017-Jan-17 11:32N 10°38' W 061°40'0 0.0
2017-Jan-17 10:32N 10°38' W 061°40'0 0.0
2017-Jan-17 09:32N 10°38' W 061°40'0 0.0
2017-Jan-17 08:32N 10°38' W 061°40'0 0.0
2017-Jan-17 07:32N 10°38' W 061°40'0 0.1
2017-Jan-17 06:32N 10°38' W 061°40'0 0.1
2017-Jan-17 05:32N 10°38' W 061°40'0 0.0
2017-Jan-17 04:32N 10°38' W 061°40'0 0.0
2017-Jan-17 03:32N 10°38' W 061°40'0 0.0
2017-Jan-17 02:32N 10°38' W 061°40'0 0.0
2017-Jan-17 01:32N 10°38' W 061°40'0 0.0
2017-Jan-17 00:32N 10°38' W 061°40'0 0.0
2017-Jan-16 23:32N 10°38' W 061°40'0 0.1
2017-Jan-16 22:29N 10°38' W 061°40'9 9.3
2017-Jan-16 21:34N 10°41' W 061°48'1414.1
2017-Jan-16 20:32N 10°52' W 061°58'11113.0
2017-Jan-16 12:00N 11°48' W 063°36'15312.7 040 / 251011.910.8 25.222.1
2017-Jan-16 00:00N 13°00' W 065°54'8714.5 050 / 251010.810.8 26.222.4
2017-Jan-15 18:00N 13°42' W 067°12'14412.0 070 / 171011.210.8 27.621.8
2017-Jan-15 06:00N 14°48' W 069°24'14311.9 070 / 201012.010.8 25.321.8
2017-Jan-14 18:00N 15°54' W 071°36'29312.2 070 / 401012.810.8 26.521.4
2017-Jan-13 18:00N 18°12' W 076°06'13211.0 060 / 281016.010.8 25.520.6
2017-Jan-13 06:00N 18°54' W 078°18'   060 / 201016.610.8 25.320.9
Track history (hours):
 
Tides and Currents Weather Stations Pressure Air Temp Water Temp Dewpoint Dewpoint Depression Visibility Wind Speed Wind Dir Waves Ship Positions

Tracer

Last reported at 2017-Jan-19 13:12 UTC. Time now 2017-Jan-20 05:44 UTC.
Position N 10°45' W 061°43'.

Length 101 m; beam 20 m.

Type: Cargo ship. MMSI: 245949000.

Date/timePositionNaut miles runAvg speedWind from/ knotsBaromVisibWave heightAir tempDewpointWater temp
2017-Jan-19 13:12N 10°45' W 061°43'6 9.8
2017-Jan-19 12:33N 10°39' W 061°45'7 6.8
2017-Jan-19 11:31N 10°41' W 061°38'0 0.0
2017-Jan-19 10:31N 10°41' W 061°38'0 0.0
2017-Jan-19 09:31N 10°41' W 061°38'0 0.0
2017-Jan-19 08:31N 10°41' W 061°38'0 0.0
2017-Jan-19 07:31N 10°41' W 061°38'0 0.0
2017-Jan-19 06:31N 10°41' W 061°38'0 0.0
2017-Jan-19 05:31N 10°41' W 061°38'0 0.0
2017-Jan-19 04:31N 10°41' W 061°38'0 0.0
2017-Jan-19 03:31N 10°41' W 061°38'0 0.0
2017-Jan-19 02:31N 10°41' W 061°38'0 0.0
2017-Jan-19 01:31N 10°41' W 061°38'0 0.0
2017-Jan-19 00:31N 10°41' W 061°38'0 0.0
2017-Jan-18 23:28N 10°41' W 061°38'0 0.0
2017-Jan-18 22:31N 10°41' W 061°38'0 0.0
2017-Jan-18 21:31N 10°41' W 061°38'0 0.0
2017-Jan-18 20:31N 10°41' W 061°38'0 0.0
2017-Jan-18 19:31N 10°41' W 061°38'0 0.0
2017-Jan-18 18:28N 10°41' W 061°38'0 0.0
2017-Jan-18 17:28N 10°41' W 061°38'0 0.0
2017-Jan-18 16:28N 10°41' W 061°38'0 0.0
2017-Jan-18 15:28N 10°41' W 061°38'0 0.0
2017-Jan-18 14:31N 10°41' W 061°38'0 0.0
2017-Jan-18 13:25N 10°41' W 061°38'0 0.0
2017-Jan-18 12:28N 10°41' W 061°38'0 0.0
2017-Jan-18 11:31N 10°41' W 061°38'0 0.0
2017-Jan-18 10:31N 10°41' W 061°38'0 0.0
2017-Jan-18 09:31N 10°41' W 061°38'0 0.0
2017-Jan-18 08:31N 10°41' W 061°38'0 0.0
2017-Jan-18 07:34N 10°41' W 061°38'0 0.0
2017-Jan-18 06:33N 10°41' W 061°38'0 0.0
2017-Jan-18 05:33N 10°41' W 061°38'0 0.0
2017-Jan-18 04:33N 10°41' W 061°38'0 0.0
2017-Jan-18 03:33N 10°41' W 061°38'0 0.0
2017-Jan-18 02:33N 10°41' W 061°38'0 0.0
2017-Jan-18 01:33N 10°41' W 061°38'0 0.0
2017-Jan-18 00:33N 10°41' W 061°38'0 0.0
2017-Jan-17 23:33N 10°41' W 061°38'0 0.0
2017-Jan-17 22:33N 10°41' W 061°38'0 0.0
2017-Jan-17 21:30N 10°41' W 061°38'0 0.0
2017-Jan-17 20:33N 10°41' W 061°38'0 0.0
2017-Jan-17 19:33N 10°41' W 061°38'0 0.0
2017-Jan-17 18:33N 10°41' W 061°38'0 0.0
2017-Jan-17 17:30N 10°41' W 061°38'0 0.0
2017-Jan-17 16:33N 10°41' W 061°38'0 0.0
2017-Jan-17 15:33N 10°41' W 061°38'0 0.0
2017-Jan-17 14:33N 10°41' W 061°38'1 0.8
2017-Jan-17 13:33N 10°40' W 061°39'2 2.1
2017-Jan-17 12:32N 10°38' W 061°40'0 0.1
2017-Jan-17 11:32N 10°38' W 061°40'0 0.0
2017-Jan-17 10:32N 10°38' W 061°40'0 0.0
2017-Jan-17 09:32N 10°38' W 061°40'0 0.0
2017-Jan-17 08:32N 10°38' W 061°40'0 0.0
2017-Jan-17 07:32N 10°38' W 061°40'0 0.1
2017-Jan-17 06:32N 10°38' W 061°40'0 0.1
2017-Jan-17 05:32N 10°38' W 061°40'0 0.0
2017-Jan-17 04:32N 10°38' W 061°40'0 0.0
2017-Jan-17 03:32N 10°38' W 061°40'0 0.0
2017-Jan-17 02:32N 10°38' W 061°40'0 0.0
2017-Jan-17 01:32N 10°38' W 061°40'0 0.0
2017-Jan-17 00:32N 10°38' W 061°40'0 0.0
2017-Jan-16 23:32N 10°38' W 061°40'0 0.1
2017-Jan-16 22:29N 10°38' W 061°40'9 9.3
2017-Jan-16 21:34N 10°41' W 061°48'1414.1
2017-Jan-16 20:32N 10°52' W 061°58'11113.0
2017-Jan-16 12:00N 11°48' W 063°36'15312.7 040 / 251011.910.8 25.222.1
2017-Jan-16 00:00N 13°00' W 065°54'8714.5 050 / 251010.810.8 26.222.4
2017-Jan-15 18:00N 13°42' W 067°12'14412.0 070 / 171011.210.8 27.621.8
2017-Jan-15 06:00N 14°48' W 069°24'14311.9 070 / 201012.010.8 25.321.8
2017-Jan-14 18:00N 15°54' W 071°36'29312.2 070 / 401012.810.8 26.521.4
2017-Jan-13 18:00N 18°12' W 076°06'13211.0 060 / 281016.010.8 25.520.6
2017-Jan-13 06:00N 18°54' W 078°18'   060 / 201016.610.8 25.320.9

Dump ship's entire track history